Time;durP1;ratioP1;P1;durP2;ratioP2;P2;SDS_P1;SDS_P2;PMS_P1;PMS_P2;Temp;Humidity;BMP_temperature;BMP_pressure;BME280_temperature;BME280_humidity;BME280_pressure;Samples;Min_cycle;Max_cycle;Signal;HPM_P1;HPM_P2
2023/12/24 00:01:50;;;;;;;;;;;;;;;;;;5096882;28;19912;-69
2023/12/24 00:04:16;;;;;;;;;;;;;;;;;;5096612;28;19913;-69
2023/12/24 00:06:42;;;;;;;;;;;;;;;;;;5096915;28;19908;-69
2023/12/24 00:09:08;;;;;;;;;;;;;;;;;;5096776;28;20351;-69
2023/12/24 00:11:34;;;;;;;;;;;;;;;;;;5095062;28;19916;-69
2023/12/24 00:14:00;;;;;;;;;;;;;;;;;;5096505;28;19916;-70
2023/12/24 00:16:26;;;;;;;;;;;;;;;;;;5096897;28;20322;-69
2023/12/24 00:18:52;;;;;;;;;;;;;;;;;;5096236;28;20364;-70
2023/12/24 00:21:18;;;;;;;;;;;;;;;;;;5096647;28;19908;-70
2023/12/24 00:23:45;;;;;;;;;;;;;;;;;;5096649;28;19908;-70
2023/12/24 00:26:11;;;;;;;;;;;;;;;;;;5095712;28;19930;-69
2023/12/24 00:28:37;;;;;;;;;;;;;;;;;;5096406;28;20310;-69
2023/12/24 00:31:03;;;;;;;;;;;;;;;;;;5095103;28;20022;-69
2023/12/24 00:33:30;;;;;;;;;;;;;;;;;;5095765;28;19997;-70
2023/12/24 00:35:56;;;;;;;;;;;;;;;;;;5096474;28;20224;-69
2023/12/24 00:38:23;;;;;;;;;;;;;;;;;;5094927;28;19908;-69
2023/12/24 00:40:48;;;;;;;;;;;;;;;;;;5095807;28;19908;-69
2023/12/24 00:43:14;;;;;;;;;;;;;;;;;;5096009;28;19908;-69
2023/12/24 00:45:40;;;;;;;;;;;;;;;;;;5096026;28;19908;-69
2023/12/24 00:48:06;;;;;;;;;;;;;;;;;;5095607;28;19909;-69
2023/12/24 00:50:32;;;;;;;;;;;;;;;;;;5096074;28;19915;-69
2023/12/24 00:52:58;;;;;;;;;;;;;;;;;;5095727;28;20336;-69
2023/12/24 00:55:24;;;;;;;;;;;;;;;;;;5095486;28;20277;-69
2023/12/24 00:57:50;;;;;;;;;;;;;;;;;;5094662;28;20284;-69
2023/12/24 01:00:16;;;;;;;;;;;;;;;;;;5095438;28;20304;-69
2023/12/24 01:02:42;;;;;;;;;;;;;;;;;;5095820;28;19908;-69
2023/12/24 01:05:08;;;;;;;;;;;;;;;;;;5095683;28;19908;-69
2023/12/24 01:07:34;;;;;;;;;;;;;;;;;;5095284;28;19913;-69
2023/12/24 01:10:00;;;;;;;;;;;;;;;;;;5095658;28;20380;-69
2023/12/24 01:12:26;;;;;;;;;;;;;;;;;;5096040;28;19916;-69
2023/12/24 01:14:52;;;;;;;;;;;;;;;;;;5095348;28;20410;-68
2023/12/24 01:17:17;;;;;;;;;;;;;;;;;;5094165;28;19915;-68
2023/12/24 01:19:44;;;;;;;;;;;;;;;;;;5095618;28;19999;-68
2023/12/24 01:22:10;;;;;;;;;;;;;;;;;;5094910;28;19909;-69
2023/12/24 01:24:36;;;;;;;;;;;;;;;;;;5095306;28;19919;-69
2023/12/24 01:27:02;;;;;;;;;;;;;;;;;;5095277;28;19912;-68
2023/12/24 01:29:28;;;;;;;;;;;;;;;;;;5093553;28;20007;-69
2023/12/24 01:31:54;;;;;;;;;;;;;;;;;;5095173;28;20280;-69
2023/12/24 01:34:20;;;;;;;;;;;;;;;;;;5095075;28;20404;-69
2023/12/24 01:36:46;;;;;;;;;;;;;;;;;;5093836;28;19912;-69
2023/12/24 01:39:13;;;;;;;;;;;;;;;;;;5093714;28;19908;-69
2023/12/24 01:41:39;;;;;;;;;;;;;;;;;;5094994;28;19915;-68
2023/12/24 01:44:05;;;;;;;;;;;;;;;;;;5094600;28;19995;-68
2023/12/24 01:46:31;;;;;;;;;;;;;;;;;;5094948;28;20361;-69
2023/12/24 01:48:57;;;;;;;;;;;;;;;;;;5093600;28;19965;-69
2023/12/24 01:51:22;;;;;;;;;;;;;;;;;;5094551;28;19962;-69
2023/12/24 01:53:48;;;;;;;;;;;;;;;;;;5094711;28;19973;-69
2023/12/24 01:56:14;;;;;;;;;;;;;;;;;;5094699;28;19915;-68
2023/12/24 01:58:40;;;;;;;;;;;;;;;;;;5092983;28;20101;-68
2023/12/24 02:01:06;;;;;;;;;;;;;;;;;;5094698;28;19908;-68
2023/12/24 02:03:32;;;;;;;;;;;;;;;;;;5094242;28;19908;-69
2023/12/24 02:05:58;;;;;;;;;;;;;;;;;;5094584;28;19908;-68
2023/12/24 02:08:25;;;;;;;;;;;;;;;;;;5094746;28;20321;-70
2023/12/24 02:10:51;;;;;;;;;;;;;;;;;;5094098;28;20120;-68
2023/12/24 02:13:17;;;;;;;;;;;;;;;;;;5094494;28;20005;-68
2023/12/24 02:15:42;;;;;;;;;;;;;;;;;;5094659;28;19927;-68
2023/12/24 02:18:08;;;;;;;;;;;;;;;;;;5094178;28;20376;-68
2023/12/24 02:20:34;;;;;;;;;;;;;;;;;;5094321;28;19908;-68
2023/12/24 02:23:00;;;;;;;;;;;;;;;;;;5094320;28;20462;-69
2023/12/24 02:25:26;;;;;;;;;;;;;;;;;;5092406;28;20006;-70
2023/12/24 02:27:52;;;;;;;;;;;;;;;;;;5094228;28;20422;-69
2023/12/24 02:30:18;;;;;;;;;;;;;;;;;;5092919;28;19908;-69
2023/12/24 02:32:44;;;;;;;;;;;;;;;;;;5093637;28;19912;-69
2023/12/24 02:35:10;;;;;;;;;;;;;;;;;;5094009;28;19994;-69
2023/12/24 02:37:36;;;;;;;;;;;;;;;;;;5094024;28;19962;-69
2023/12/24 02:40:03;;;;;;;;;;;;;;;;;;5092325;28;19915;-69
2023/12/24 02:42:29;;;;;;;;;;;;;;;;;;5093994;28;19951;-69
2023/12/24 02:44:56;;;;;;;;;;;;;;;;;;5094251;28;19991;-69
2023/12/24 02:47:22;;;;;;;;;;;;;;;;;;5092131;28;20003;-69
2023/12/24 02:49:48;;;;;;;;;;;;;;;;;;5093866;28;20272;-69
2023/12/24 02:52:14;;;;;;;;;;;;;;;;;;5093493;28;19984;-69
2023/12/24 02:54:40;;;;;;;;;;;;;;;;;;5093429;28;19908;-69
2023/12/24 02:57:06;;;;;;;;;;;;;;;;;;5093849;28;19912;-69
2023/12/24 02:59:31;;;;;;;;;;;;;;;;;;5093833;28;19915;-69
2023/12/24 03:01:57;;;;;;;;;;;;;;;;;;5093409;28;19908;-69
2023/12/24 03:04:23;;;;;;;;;;;;;;;;;;5093843;28;19908;-69
2023/12/24 03:06:49;;;;;;;;;;;;;;;;;;5093337;28;19908;-69
2023/12/24 03:09:15;;;;;;;;;;;;;;;;;;5093744;28;19908;-69
2023/12/24 03:11:41;;;;;;;;;;;;;;;;;;5093572;28;20352;-70
2023/12/24 03:14:07;;;;;;;;;;;;;;;;;;5093337;28;19923;-69
2023/12/24 03:16:33;;;;;;;;;;;;;;;;;;5093817;28;19908;-69
2023/12/24 03:18:59;;;;;;;;;;;;;;;;;;5093590;28;19916;-69
2023/12/24 03:21:26;;;;;;;;;;;;;;;;;;5093059;28;19916;-69
2023/12/24 03:23:52;;;;;;;;;;;;;;;;;;5093556;28;19908;-69
2023/12/24 03:26:19;;;;;;;;;;;;;;;;;;5093527;28;19908;-69
2023/12/24 03:28:45;;;;;;;;;;;;;;;;;;5093106;28;19947;-69
2023/12/24 03:31:10;;;;;;;;;;;;;;;;;;5093523;28;19958;-69
2023/12/24 03:33:36;;;;;;;;;;;;;;;;;;5093408;28;19916;-69
2023/12/24 03:36:02;;;;;;;;;;;;;;;;;;5093046;28;19912;-69
2023/12/24 03:38:28;;;;;;;;;;;;;;;;;;5093441;28;19993;-69
2023/12/24 03:40:54;;;;;;;;;;;;;;;;;;5092135;28;19908;-69
2023/12/24 03:43:20;;;;;;;;;;;;;;;;;;5093767;28;19908;-69
2023/12/24 03:45:46;;;;;;;;;;;;;;;;;;5093369;28;19998;-69
2023/12/24 03:48:12;;;;;;;;;;;;;;;;;;5093396;28;19908;-69
2023/12/24 03:50:38;;;;;;;;;;;;;;;;;;5092908;28;19918;-69
2023/12/24 03:53:05;;;;;;;;;;;;;;;;;;5093000;28;19963;-69
2023/12/24 03:55:31;;;;;;;;;;;;;;;;;;5093242;28;19912;-69
2023/12/24 03:57:57;;;;;;;;;;;;;;;;;;5092873;28;19978;-69
2023/12/24 04:00:23;;;;;;;;;;;;;;;;;;5094935;28;19998;-69
2023/12/24 04:02:49;;;;;;;;;;;;;;;;;;5096981;28;20276;-69
2023/12/24 04:05:15;;;;;;;;;;;;;;;;;;5096437;28;20257;-69
2023/12/24 04:07:41;;;;;;;;;;;;;;;;;;5095466;28;20093;-69
2023/12/24 04:10:07;;;;;;;;;;;;;;;;;;5095157;28;20367;-69
2023/12/24 04:12:33;;;;;;;;;;;;;;;;;;5096917;28;19919;-70
2023/12/24 04:14:59;;;;;;;;;;;;;;;;;;5096680;28;19916;-69
2023/12/24 04:17:25;;;;;;;;;;;;;;;;;;5095004;28;19975;-69
2023/12/24 04:19:51;;;;;;;;;;;;;;;;;;5096537;28;19912;-69
2023/12/24 04:22:17;;;;;;;;;;;;;;;;;;5096540;28;19930;-69
2023/12/24 04:24:43;;;;;;;;;;;;;;;;;;5096176;28;20340;-69
2023/12/24 04:27:09;;;;;;;;;;;;;;;;;;5096453;28;20406;-69
2023/12/24 04:29:35;;;;;;;;;;;;;;;;;;5096432;28;20368;-69
2023/12/24 04:32:01;;;;;;;;;;;;;;;;;;5095883;28;20340;-69
2023/12/24 04:34:27;;;;;;;;;;;;;;;;;;5096339;28;20280;-69
2023/12/24 04:36:53;;;;;;;;;;;;;;;;;;5096216;28;20352;-69
2023/12/24 04:39:19;;;;;;;;;;;;;;;;;;5094592;28;19908;-69
2023/12/24 04:41:45;;;;;;;;;;;;;;;;;;5096199;28;19908;-69
2023/12/24 04:44:11;;;;;;;;;;;;;;;;;;5096186;28;20004;-69
2023/12/24 04:46:36;;;;;;;;;;;;;;;;;;5095644;28;19917;-69
2023/12/24 04:49:03;;;;;;;;;;;;;;;;;;5096281;28;19908;-69
2023/12/24 04:51:29;;;;;;;;;;;;;;;;;;5095742;28;20284;-68
2023/12/24 04:53:55;;;;;;;;;;;;;;;;;;5095572;28;20391;-69
2023/12/24 04:56:21;;;;;;;;;;;;;;;;;;5095946;28;20482;-69
2023/12/24 04:58:47;;;;;;;;;;;;;;;;;;5095819;28;19912;-69
2023/12/24 05:01:13;;;;;;;;;;;;;;;;;;5095453;28;19912;-69
2023/12/24 05:03:38;;;;;;;;;;;;;;;;;;5094442;28;19912;-69
2023/12/24 05:06:04;;;;;;;;;;;;;;;;;;5095696;28;19922;-69
2023/12/24 05:08:30;;;;;;;;;;;;;;;;;;5095272;28;19908;-68
2023/12/24 05:10:56;;;;;;;;;;;;;;;;;;5095736;28;19908;-68
2023/12/24 05:13:22;;;;;;;;;;;;;;;;;;5095034;28;19920;-69
2023/12/24 05:15:48;;;;;;;;;;;;;;;;;;5095735;28;19996;-68
2023/12/24 05:18:14;;;;;;;;;;;;;;;;;;5095457;28;19915;-69
2023/12/24 05:20:40;;;;;;;;;;;;;;;;;;5094995;28;19931;-69
2023/12/24 05:23:06;;;;;;;;;;;;;;;;;;5095333;28;20288;-69
2023/12/24 05:25:32;;;;;;;;;;;;;;;;;;5095693;28;19908;-69
2023/12/24 05:27:58;;;;;;;;;;;;;;;;;;5094800;28;19915;-69
2023/12/24 05:30:24;;;;;;;;;;;;;;;;;;5095247;28;19911;-69
2023/12/24 05:32:50;;;;;;;;;;;;;;;;;;5093783;28;19916;-70
2023/12/24 05:35:17;;;;;;;;;;;;;;;;;;5094737;28;19962;-69
2023/12/24 05:37:43;;;;;;;;;;;;;;;;;;5094934;28;19909;-69
2023/12/24 05:40:09;;;;;;;;;;;;;;;;;;5095044;28;19954;-69
2023/12/24 05:42:35;;;;;;;;;;;;;;;;;;5094529;28;19908;-69
2023/12/24 05:45:01;;;;;;;;;;;;;;;;;;5094885;28;19912;-69
2023/12/24 05:47:27;;;;;;;;;;;;;;;;;;5094859;28;19908;-69
2023/12/24 05:49:53;;;;;;;;;;;;;;;;;;5094462;28;20300;-69
2023/12/24 05:52:19;;;;;;;;;;;;;;;;;;5094677;28;19994;-69
2023/12/24 05:54:45;;;;;;;;;;;;;;;;;;5094763;28;19915;-69
2023/12/24 05:57:11;;;;;;;;;;;;;;;;;;5094316;28;19912;-69
2023/12/24 05:59:37;;;;;;;;;;;;;;;;;;5094690;28;19931;-69
2023/12/24 06:02:03;;;;;;;;;;;;;;;;;;5094547;28;20380;-69
2023/12/24 06:04:30;;;;;;;;;;;;;;;;;;5094413;28;19908;-68
2023/12/24 06:06:56;;;;;;;;;;;;;;;;;;5094554;28;20254;-68
2023/12/24 06:09:22;;;;;;;;;;;;;;;;;;5094529;28;19908;-68
2023/12/24 06:11:48;;;;;;;;;;;;;;;;;;5094034;28;19908;-68
2023/12/24 06:14:14;;;;;;;;;;;;;;;;;;5094601;28;20326;-69
2023/12/24 06:16:40;;;;;;;;;;;;;;;;;;5094334;28;19908;-69
2023/12/24 06:19:06;;;;;;;;;;;;;;;;;;5094334;28;20310;-68
2023/12/24 06:21:32;;;;;;;;;;;;;;;;;;5092986;28;20318;-68
2023/12/24 06:23:58;;;;;;;;;;;;;;;;;;5092098;28;20370;-68
2023/12/24 06:26:24;;;;;;;;;;;;;;;;;;5094165;28;20388;-69
2023/12/24 06:28:50;;;;;;;;;;;;;;;;;;5094360;28;20374;-69
2023/12/24 06:31:16;;;;;;;;;;;;;;;;;;5093907;28;20022;-69
2023/12/24 06:33:42;;;;;;;;;;;;;;;;;;5092817;28;19916;-69
2023/12/24 06:36:08;;;;;;;;;;;;;;;;;;5094076;28;19948;-69
2023/12/24 06:38:34;;;;;;;;;;;;;;;;;;5092494;28;19908;-69
2023/12/24 06:41:01;;;;;;;;;;;;;;;;;;5094069;28;19951;-68
2023/12/24 06:43:27;;;;;;;;;;;;;;;;;;5094112;28;19923;-69
2023/12/24 06:45:53;;;;;;;;;;;;;;;;;;5093650;28;19908;-68
2023/12/24 06:48:19;;;;;;;;;;;;;;;;;;5093918;28;19947;-68
2023/12/24 06:50:45;;;;;;;;;;;;;;;;;;5092694;28;19909;-69
2023/12/24 06:53:11;;;;;;;;;;;;;;;;;;5093283;28;19978;-69
2023/12/24 06:55:37;;;;;;;;;;;;;;;;;;5094248;28;19908;-68
2023/12/24 06:58:03;;;;;;;;;;;;;;;;;;5094406;28;19909;-68
2023/12/24 07:00:30;;;;;;;;;;;;;;;;;;5093412;28;19912;-68
2023/12/24 07:02:55;;;;;;;;;;;;;;;;;;5094352;28;19915;-68
2023/12/24 07:05:21;;;;;;;;;;;;;;;;;;5093889;28;19916;-68
2023/12/24 07:07:47;;;;;;;;;;;;;;;;;;5093376;28;19916;-68
2023/12/24 07:10:13;;;;;;;;;;;;;;;;;;5092348;28;19915;-68
2023/12/24 07:12:39;;;;;;;;;;;;;;;;;;5093836;28;19916;-68
2023/12/24 07:15:06;;;;;;;;;;;;;;;;;;5093296;28;19909;-68
2023/12/24 07:17:32;;;;;;;;;;;;;;;;;;5093707;28;19999;-68
2023/12/24 07:19:59;;;;;;;;;;;;;;;;;;5093284;28;20288;-68
2023/12/24 07:22:25;;;;;;;;;;;;;;;;;;5093713;28;19954;-69
2023/12/24 07:24:51;;;;;;;;;;;;;;;;;;5093596;28;19912;-69
2023/12/24 07:27:17;;;;;;;;;;;;;;;;;;5093247;28;19909;-69
2023/12/24 07:29:43;;;;;;;;;;;;;;;;;;5093609;28;20014;-69
2023/12/24 07:32:09;;;;;;;;;;;;;;;;;;5093490;28;19908;-69
2023/12/24 07:34:35;;;;;;;;;;;;;;;;;;5092250;28;19933;-69
2023/12/24 07:37:01;;;;;;;;;;;;;;;;;;5097699;28;19957;-69
2023/12/24 07:39:27;;;;;;;;;;;;;;;;;;5097374;28;19995;-68
2023/12/24 07:41:55;;;;;;;;;;;;;;;;;;5097129;28;20314;-68
2023/12/24 07:44:21;;;;;;;;;;;;;;;;;;5097301;28;19916;-69
2023/12/24 07:46:48;;;;;;;;;;;;;;;;;;5097531;28;19931;-69
2023/12/24 07:49:13;;;;;;;;;;;;;;;;;;5096951;28;20353;-70
2023/12/24 07:51:41;;;;;;;;;;;;;;;;;;5097028;28;20285;-69
2023/12/24 07:54:07;;;;;;;;;;;;;;;;;;5097298;28;19916;-69
2023/12/24 07:56:32;;;;;;;;;;;;;;;;;;5095347;28;19962;-70
2023/12/24 07:58:58;;;;;;;;;;;;;;;;;;5097096;28;19908;-69
2023/12/24 08:01:24;;;;;;;;;;;;;;;;;;5097310;28;19952;-69
2023/12/24 08:03:50;;;;;;;;;;;;;;;;;;5096654;28;20261;-69
2023/12/24 08:06:19;;;;;;;;;;;;;;;;;;5096850;28;19995;-69
2023/12/24 08:08:45;;;;;;;;;;;;;;;;;;5096857;28;19958;-70
2023/12/24 08:11:11;;;;;;;;;;;;;;;;;;5095120;28;19908;-69
2023/12/24 08:13:37;;;;;;;;;;;;;;;;;;5095389;28;19916;-68
2023/12/24 08:16:02;;;;;;;;;;;;;;;;;;5096714;28;20265;-68
2023/12/24 08:18:28;;;;;;;;;;;;;;;;;;5096296;28;19908;-69
2023/12/24 08:20:55;;;;;;;;;;;;;;;;;;5095329;28;19915;-69
2023/12/24 08:23:20;;;;;;;;;;;;;;;;;;5096223;28;19961;-68
2023/12/24 08:25:46;;;;;;;;;;;;;;;;;;5096505;28;19908;-69
2023/12/24 08:28:14;;;;;;;;;;;;;;;;;;5096744;28;19922;-69
2023/12/24 08:30:40;;;;;;;;;;;;;;;;;;5094671;28;19915;-69
2023/12/24 08:33:06;;;;;;;;;;;;;;;;;;5096296;28;19912;-69
2023/12/24 08:35:32;;;;;;;;;;;;;;;;;;5095026;28;19912;-68
2023/12/24 08:37:58;;;;;;;;;;;;;;;;;;5095877;28;19934;-69
2023/12/24 08:40:27;;;;;;;;;;;;;;;;;;5096419;28;19908;-69
2023/12/24 08:42:53;;;;;;;;;;;;;;;;;;5096620;28;19908;-70
2023/12/24 08:45:19;;;;;;;;;;;;;;;;;;5095463;28;20288;-71
2023/12/24 08:47:45;;;;;;;;;;;;;;;;;;5096131;28;19943;-70
2023/12/24 08:50:11;;;;;;;;;;;;;;;;;;5096271;28;20560;-70
2023/12/24 08:52:39;;;;;;;;;;;;;;;;;;5095447;28;20391;-69
2023/12/24 08:55:06;;;;;;;;;;;;;;;;;;5096245;28;19915;-71
2023/12/24 08:57:32;;;;;;;;;;;;;;;;;;5095894;28;19934;-70
2023/12/24 08:59:57;;;;;;;;;;;;;;;;;;5094361;28;20396;-71
2023/12/24 09:02:23;;;;;;;;;;;;;;;;;;5096207;28;19908;-69
2023/12/24 09:04:49;;;;;;;;;;;;;;;;;;5096054;28;19909;-69
2023/12/24 09:07:15;;;;;;;;;;;;;;;;;;5095441;28;19922;-69
2023/12/24 09:09:41;;;;;;;;;;;;;;;;;;5094352;28;20318;-69
2023/12/24 09:12:07;;;;;;;;;;;;;;;;;;5095786;28;20410;-70
2023/12/24 09:14:33;;;;;;;;;;;;;;;;;;5094012;28;19915;-70
2023/12/24 09:16:59;;;;;;;;;;;;;;;;;;5095999;28;20407;-70
2023/12/24 09:19:25;;;;;;;;;;;;;;;;;;5095387;28;19973;-70
2023/12/24 09:21:51;;;;;;;;;;;;;;;;;;5094168;28;20010;-70
2023/12/24 09:24:17;;;;;;;;;;;;;;;;;;5094133;28;19909;-70
2023/12/24 09:26:43;;;;;;;;;;;;;;;;;;5094919;28;19908;-70
2023/12/24 09:29:09;;;;;;;;;;;;;;;;;;5095319;28;19990;-70
2023/12/24 09:31:35;;;;;;;;;;;;;;;;;;5095269;28;19915;-70
2023/12/24 09:34:01;;;;;;;;;;;;;;;;;;5093505;28;19922;-70
2023/12/24 09:36:26;;;;;;;;;;;;;;;;;;5095088;28;19919;-70
2023/12/24 09:38:52;;;;;;;;;;;;;;;;;;5095125;28;19908;-69
2023/12/24 09:41:21;;;;;;;;;;;;;;;;;;5094561;28;19916;-70
2023/12/24 09:43:47;;;;;;;;;;;;;;;;;;5095348;28;19908;-70
2023/12/24 09:46:13;;;;;;;;;;;;;;;;;;5095267;28;19914;-70
2023/12/24 09:48:39;;;;;;;;;;;;;;;;;;5093258;28;19908;-70
2023/12/24 09:51:06;;;;;;;;;;;;;;;;;;5094884;28;19954;-70
2023/12/24 09:53:33;;;;;;;;;;;;;;;;;;5094559;28;19963;-70
2023/12/24 09:55:59;;;;;;;;;;;;;;;;;;5094472;28;19915;-70
2023/12/24 09:58:25;;;;;;;;;;;;;;;;;;5094102;28;19915;-70
2023/12/24 10:00:50;;;;;;;;;;;;;;;;;;5094666;28;20261;-70
2023/12/24 10:03:16;;;;;;;;;;;;;;;;;;5094348;28;20345;-71
2023/12/24 10:05:42;;;;;;;;;;;;;;;;;;5094635;28;19909;-69
2023/12/24 10:08:08;;;;;;;;;;;;;;;;;;5094606;28;20303;-70
2023/12/24 10:10:34;;;;;;;;;;;;;;;;;;5092909;28;20287;-70
2023/12/24 10:13:01;;;;;;;;;;;;;;;;;;5094388;28;20080;-70
2023/12/24 10:15:27;;;;;;;;;;;;;;;;;;5094485;28;19995;-69
2023/12/24 10:17:52;;;;;;;;;;;;;;;;;;5092732;28;19954;-70
2023/12/24 10:20:18;;;;;;;;;;;;;;;;;;5094361;28;19915;-70
2023/12/24 10:22:44;;;;;;;;;;;;;;;;;;5094229;28;19999;-70
2023/12/24 10:25:10;;;;;;;;;;;;;;;;;;5094327;28;19908;-70
2023/12/24 10:27:36;;;;;;;;;;;;;;;;;;5094216;28;19912;-69
2023/12/24 10:30:02;;;;;;;;;;;;;;;;;;5093804;28;19911;-69
2023/12/24 10:32:29;;;;;;;;;;;;;;;;;;5094269;28;19916;-69
2023/12/24 10:34:55;;;;;;;;;;;;;;;;;;5094081;28;20360;-69
2023/12/24 10:37:21;;;;;;;;;;;;;;;;;;5093715;28;20006;-69
2023/12/24 10:39:47;;;;;;;;;;;;;;;;;;5092686;28;20286;-69
2023/12/24 10:42:14;;;;;;;;;;;;;;;;;;5094045;28;19909;-69
2023/12/24 10:44:40;;;;;;;;;;;;;;;;;;5093701;28;19908;-69
2023/12/24 10:47:07;;;;;;;;;;;;;;;;;;5093973;28;19908;-69
2023/12/24 10:50:01;;;;;;;;;;;;;;;;;;5092028;27;20276;-69
2023/12/24 10:52:26;;;;;;;;;;;;;;;;;;5091031;28;19912;-69
2023/12/24 10:54:52;;;;;;;;;;;;;;;;;;5089892;28;20086;-71
2023/12/24 10:57:18;;;;;;;;;;;;;;;;;;5091131;28;19916;-69
2023/12/24 11:00:13;;;;;;;;;;;;;;;;;;5111416;27;20269;-69
2023/12/24 11:04:53;;;;;;;;;;;;;;;;;;5092114;27;20356;-69
2023/12/24 11:07:20;;;;;;;;;;;;;;;;;;5090956;28;19916;-69
2023/12/24 11:09:46;;;;;;;;;;;;;;;;;;5091186;28;19915;-69
2023/12/24 11:12:13;;;;;;;;;;;;;;;;;;5090818;28;19918;-69
2023/12/24 11:14:45;;;;;;;;;;;;;;;;;;5091137;28;19991;-69
2023/12/24 11:17:11;;;;;;;;;;;;;;;;;;5089673;28;19908;-69
2023/12/24 11:19:41;;;;;;;;;;;;;;;;;;5090758;28;19915;-69
2023/12/24 11:22:07;;;;;;;;;;;;;;;;;;5090972;28;19939;-69
2023/12/24 11:26:29;;;;;;;;;;;;;;;;;;5132084;27;19912;-70
2023/12/24 11:28:55;;;;;;;;;;;;;;;;;;5113734;28;20349;-70
2023/12/24 11:31:21;;;;;;;;;;;;;;;;;;5113753;28;19908;-70
2023/12/24 11:34:16;;;;;;;;;;;;;;;;;;5091372;27;19916;-69
2023/12/24 11:36:42;;;;;;;;;;;;;;;;;;5091529;28;19912;-69
2023/12/24 11:44:24;;;;;;;;;;;;;;;;;;5112468;27;20360;-69
2023/12/24 11:48:06;;;;;;;;;;;;;;;;;;5091267;27;19918;-69
2023/12/24 11:50:34;;;;;;;;;;;;;;;;;;5091181;28;20360;-69
2023/12/24 11:53:00;;;;;;;;;;;;;;;;;;5091070;28;19908;-69
2023/12/24 11:55:26;;;;;;;;;;;;;;;;;;5089449;28;19931;-70
2023/12/24 11:58:07;;;;;;;;;;;;;;;;;;5085519;27;2500630;-69
2023/12/24 12:00:32;;;;;;;;;;;;;;;;;;5173540;27;19911;-70
2023/12/24 12:02:58;;;;;;;;;;;;;;;;;;5173165;27;20005;-69
2023/12/24 12:07:53;;;;;;;;;;;;;;;;;;5111725;27;19916;-69
2023/12/24 12:10:19;;;;;;;;;;;;;;;;;;5111218;28;19919;-70
2023/12/24 12:12:45;;;;;;;;;;;;;;;;;;5111529;28;19908;-69
2023/12/24 12:15:11;;;;;;;;;;;;;;;;;;5111562;28;19908;-69
2023/12/24 12:17:37;;;;;;;;;;;;;;;;;;5111048;28;20304;-70
2023/12/24 12:20:03;;;;;;;;;;;;;;;;;;5111450;28;19912;-69
2023/12/24 12:22:30;;;;;;;;;;;;;;;;;;5111043;28;19966;-70
2023/12/24 12:24:56;;;;;;;;;;;;;;;;;;5111500;28;19908;-70
2023/12/24 12:27:22;;;;;;;;;;;;;;;;;;5111199;28;20421;-70
2023/12/24 12:29:48;;;;;;;;;;;;;;;;;;5110888;28;19987;-70
2023/12/24 12:34:25;;;;;;;;;;;;;;;;;;5112163;27;19912;-70
2023/12/24 12:36:51;;;;;;;;;;;;;;;;;;5109929;28;19912;-70
2023/12/24 12:39:17;;;;;;;;;;;;;;;;;;5111599;28;19908;-69
2023/12/24 12:41:43;;;;;;;;;;;;;;;;;;5111616;28;19912;-69
2023/12/24 12:44:09;;;;;;;;;;;;;;;;;;5111046;28;19915;-69
2023/12/24 12:46:35;;;;;;;;;;;;;;;;;;5111530;28;19960;-69
2023/12/24 12:49:01;;;;;;;;;;;;;;;;;;5110165;28;20007;-69
2023/12/24 12:51:27;;;;;;;;;;;;;;;;;;5110836;28;19954;-69
2023/12/24 12:56:37;;;;;;;;;;;;;;;;;;5111456;28;19960;-69
2023/12/24 12:59:03;;;;;;;;;;;;;;;;;;5109598;28;20022;-69
2023/12/24 13:01:29;;;;;;;;;;;;;;;;;;5111155;28;19908;-69
2023/12/24 13:03:55;;;;;;;;;;;;;;;;;;5111063;28;19908;-70
2023/12/24 13:06:21;;;;;;;;;;;;;;;;;;5110696;28;19908;-69
2023/12/24 13:08:47;;;;;;;;;;;;;;;;;;5109690;28;20038;-69
2023/12/24 13:11:13;;;;;;;;;;;;;;;;;;5109725;28;19973;-69
2023/12/24 13:14:24;;;;;;;;;;;;;;;;;;5091730;27;20299;-70
2023/12/24 13:18:49;;;;;;;;;;;;;;;;;;5070852;28;19917;-69
2023/12/24 13:21:15;;;;;;;;;;;;;;;;;;5071247;28;20002;-69
2023/12/24 13:23:43;;;;;;;;;;;;;;;;;;5070898;28;19967;-69
2023/12/24 13:27:05;;;;;;;;;;;;;;;;;;5091029;27;20270;-70
2023/12/24 13:29:31;;;;;;;;;;;;;;;;;;5090057;28;20011;-70
2023/12/24 13:31:57;;;;;;;;;;;;;;;;;;5091528;28;20331;-69
2023/12/24 13:34:23;;;;;;;;;;;;;;;;;;5090922;28;20417;-70
2023/12/24 13:36:49;;;;;;;;;;;;;;;;;;5091334;28;19949;-70
2023/12/24 13:39:19;;;;;;;;;;;;;;;;;;5091013;28;20361;-69
2023/12/24 13:41:45;;;;;;;;;;;;;;;;;;5090688;28;19915;-69
2023/12/24 13:44:11;;;;;;;;;;;;;;;;;;5090952;28;19908;-69
2023/12/24 13:46:36;;;;;;;;;;;;;;;;;;5090840;28;19923;-69
2023/12/24 13:49:07;;;;;;;;;;;;;;;;;;5090483;28;19908;-69
2023/12/24 13:51:33;;;;;;;;;;;;;;;;;;5090866;28;19919;-69
2023/12/24 13:53:59;;;;;;;;;;;;;;;;;;5090362;28;19908;-69
2023/12/24 13:56:25;;;;;;;;;;;;;;;;;;5089404;28;20379;-69
2023/12/24 13:59:32;;;;;;;;;;;;;;;;;;5092007;27;19916;-69
2023/12/24 14:04:04;;;;;;;;;;;;;;;;;;5091339;28;19916;-69
2023/12/24 14:06:30;;;;;;;;;;;;;;;;;;5091227;28;19918;-69
2023/12/24 14:08:58;;;;;;;;;;;;;;;;;;5090764;28;19916;-69
2023/12/24 14:12:13;;;;;;;;;;;;;;;;;;5071365;28;19919;-68
2023/12/24 14:14:39;;;;;;;;;;;;;;;;;;5069863;28;20007;-68
2023/12/24 14:17:40;;;;;;;;;;;;;;;;;;5111973;27;19919;-69
2023/12/24 14:22:30;;;;;;;;;;;;;;;;;;5194408;27;19911;-68
2023/12/24 14:24:56;;;;;;;;;;;;;;;;;;5194704;27;19954;-68
2023/12/24 14:27:22;;;;;;;;;;;;;;;;;;5194689;27;19907;-69
2023/12/24 14:29:48;;;;;;;;;;;;;;;;;;5194092;27;19963;-69
2023/12/24 14:34:36;;;;;;;;;;;;;;;;;;5091316;27;19923;-69
2023/12/24 14:38:04;;;;;;;;;;;;;;;;;;5111338;27;19916;-69
2023/12/24 14:42:18;;;;;;;;;;;;;;;;;;5091689;27;19919;-68
2023/12/24 14:44:44;;;;;;;;;;;;;;;;;;5090874;28;20003;-68
2023/12/24 14:49:27;;;;;;;;;;;;;;;;;;5091385;27;19917;-68
2023/12/24 14:54:17;;;;;;;;;;;;;;;;;;5091804;27;20296;-68
2023/12/24 14:59:07;;;;;;;;;;;;;;;;;;5090952;27;19917;-68
2023/12/24 15:02:17;;;;;;;;;;;;;;;;;;5111649;27;19916;-68
2023/12/24 15:05:06;;;;;;;;;;;;;;;;;;5071170;28;19916;-69
2023/12/24 15:09:20;;;;;;;;;;;;;;;;;;5111986;27;20007;-70
2023/12/24 15:11:46;;;;;;;;;;;;;;;;;;5111297;28;19919;-70
2023/12/24 15:14:12;;;;;;;;;;;;;;;;;;5093494;28;20272;-68
2023/12/24 15:16:38;;;;;;;;;;;;;;;;;;5111488;28;20011;-69
2023/12/24 15:19:04;;;;;;;;;;;;;;;;;;5111047;28;19919;-69
2023/12/24 15:21:29;;;;;;;;;;;;;;;;;;5111678;28;20390;-68
2023/12/24 15:23:55;;;;;;;;;;;;;;;;;;5111327;28;19970;-69
2023/12/24 15:26:21;;;;;;;;;;;;;;;;;;5092606;28;19973;-69
2023/12/24 15:28:47;;;;;;;;;;;;;;;;;;5111231;28;20394;-69
2023/12/24 15:31:13;;;;;;;;;;;;;;;;;;5111213;28;19915;-69
2023/12/24 15:33:39;;;;;;;;;;;;;;;;;;5092410;28;19974;-70
2023/12/24 15:36:05;;;;;;;;;;;;;;;;;;5111082;28;20024;-69
2023/12/24 15:38:31;;;;;;;;;;;;;;;;;;5111052;28;19908;-69
2023/12/24 15:40:57;;;;;;;;;;;;;;;;;;5110583;28;19908;-69
2023/12/24 15:43:25;;;;;;;;;;;;;;;;;;5110940;28;19908;-69
2023/12/24 15:45:51;;;;;;;;;;;;;;;;;;5111061;28;20313;-69
2023/12/24 15:48:17;;;;;;;;;;;;;;;;;;5110560;28;19974;-70
2023/12/24 15:50:43;;;;;;;;;;;;;;;;;;5110990;28;19940;-69
2023/12/24 15:53:09;;;;;;;;;;;;;;;;;;5092538;28;19943;-69
2023/12/24 15:55:35;;;;;;;;;;;;;;;;;;5110466;28;19909;-69
2023/12/24 15:58:02;;;;;;;;;;;;;;;;;;5110649;28;19908;-69
2023/12/24 16:00:30;;;;;;;;;;;;;;;;;;5110179;28;20432;-70
2023/12/24 16:02:56;;;;;;;;;;;;;;;;;;5092363;28;19915;-69
2023/12/24 16:05:23;;;;;;;;;;;;;;;;;;5110862;28;19908;-69
2023/12/24 16:07:49;;;;;;;;;;;;;;;;;;5109798;28;20057;-71
2023/12/24 16:10:15;;;;;;;;;;;;;;;;;;5110524;28;19966;-70
2023/12/24 16:12:41;;;;;;;;;;;;;;;;;;5110547;28;19915;-69
2023/12/24 16:15:07;;;;;;;;;;;;;;;;;;5110049;28;19908;-70
2023/12/24 16:17:33;;;;;;;;;;;;;;;;;;5110642;28;19908;-69
2023/12/24 16:19:59;;;;;;;;;;;;;;;;;;5100334;28;20384;-69
2023/12/24 16:22:25;;;;;;;;;;;;;;;;;;5096251;28;20315;-69
2023/12/24 16:24:53;;;;;;;;;;;;;;;;;;5096783;28;20307;-69
2023/12/24 16:27:19;;;;;;;;;;;;;;;;;;5096506;28;20015;-69
2023/12/24 16:29:45;;;;;;;;;;;;;;;;;;5096022;28;19919;-69
2023/12/24 16:32:14;;;;;;;;;;;;;;;;;;5096525;28;19908;-69
2023/12/24 16:34:40;;;;;;;;;;;;;;;;;;5096428;28;19915;-69
2023/12/24 16:37:06;;;;;;;;;;;;;;;;;;5095969;28;20284;-68
2023/12/24 16:39:32;;;;;;;;;;;;;;;;;;5096380;28;20272;-70
2023/12/24 16:41:58;;;;;;;;;;;;;;;;;;5078071;28;20339;-70
2023/12/24 16:44:24;;;;;;;;;;;;;;;;;;5096021;28;19954;-70
2023/12/24 16:46:50;;;;;;;;;;;;;;;;;;5096151;28;20249;-70
2023/12/24 16:49:16;;;;;;;;;;;;;;;;;;5078091;28;19919;-70
2023/12/24 16:51:42;;;;;;;;;;;;;;;;;;5095748;28;20381;-70
2023/12/24 16:54:08;;;;;;;;;;;;;;;;;;5096100;28;19920;-70
2023/12/24 16:56:34;;;;;;;;;;;;;;;;;;5095882;28;19915;-70
2023/12/24 16:58:59;;;;;;;;;;;;;;;;;;5095867;28;19908;-70
2023/12/24 17:01:25;;;;;;;;;;;;;;;;;;5095937;28;19950;-70
2023/12/24 17:03:53;;;;;;;;;;;;;;;;;;5095586;28;19908;-70
2023/12/24 17:06:19;;;;;;;;;;;;;;;;;;5095983;28;20007;-70
2023/12/24 17:08:45;;;;;;;;;;;;;;;;;;5077303;28;20006;-70
2023/12/24 17:11:11;;;;;;;;;;;;;;;;;;5077257;28;19908;-70
2023/12/24 17:13:37;;;;;;;;;;;;;;;;;;5095753;28;20318;-70
2023/12/24 17:16:03;;;;;;;;;;;;;;;;;;5095779;28;19915;-70
2023/12/24 17:18:29;;;;;;;;;;;;;;;;;;5095313;28;19908;-70
2023/12/24 17:20:55;;;;;;;;;;;;;;;;;;5095535;28;20372;-70
2023/12/24 17:23:21;;;;;;;;;;;;;;;;;;5078339;28;19996;-70